Airfield :
LOGIN :

Register | Disclaimer

   EN    FR    IT 

 










Legend :    VFR   Marginal VFR   IFR   Intensive IFR   Very Intensive IFR
Visi :
Ceiling :
>= 8 km
>= 3000ft
5 to 8 km
1000 to 3000 ft
1500m to 5 km
500 to 1000 ft
800 to 1500m
200 to 500 ft
< 800m
< 200 ft
Symbols :   Thunderstorms  Fog  Heavy snow  Heavy precipitations  Wind > 20 kt
SIGMETs :     Misc.  Thunderstorms  Icing  Turbulence  Mountain Waves  Volcanic Ashes






- Airport Elevation : 1260 ft
- IATA code : LDE


LFBT - Tarbes / Ossun

CURRENT METAR :
  • 070930Z AUTO 15004KT 9999 SCT022 BKN029 OVC035 11/09 Q1013 NOSIG

EXPIRED METARs :
  • 070900Z AUTO VRB02KT 9999 -RA BKN015 BKN020 BKN025 11/09 Q1013 NOSIG
  • 070830Z AUTO VRB03KT 7000 -RA FEW006 SCT012 OVC020 10/09 Q1013 NOSIG
  • 070800Z AUTO 36006KT 5000 -RA BR BKN007 OVC015 11/10 Q1013 BECMG SCT030 BKN050
  • 070730Z AUTO 35008KT 4500 -DZ BR BKN005 OVC009 11/10 Q1012 BECMG 9999 NSW SCT030 BKN050
  • 070700Z AUTO 01008KT 4700 -DZ BR BKN005 OVC009 11/10 Q1012 NOSIG

TAF AMD TAF LFBT
Valid from the 07 at 09:00 until the 08 at 06:00 UTC


070912Z 0709/0806 27004KT 9999 BKN020 BKN033
PROB40
TEMPO 0709/0710 -RA BKN013 OVC020
BECMG 0710/0712 SCT030 BKN050
BECMG 0712/0714 SCT050
TEMPO 0714/0720 30010KT -SHRA SCT025 BKN040TCU



MET'MAP, your aeronautical weather chart ! - Copyright ORBIFLY December 2007 - Disclaimer

ORBIFLY MET'MAP TEAM :

Programming & Development : Alexandra Zaïnal
Concept & original design : Baudouin d'Aumeries
Assistance for programming : Marc-Olivier Méhu
Technical & hardware support : Manuel Goepfert

Contact : metmap@orbifly.com




SOURCES & CREDITS :

   NOAA